sensor_id;sensor_type;location;lat;lon;timestamp;temperature;humidity
70421;SHT31;57848;51.938;15.520;2023-11-25T00:00:08;2.15;92.41
70421;SHT31;57848;51.938;15.520;2023-11-25T00:02:37;2.03;92.19
70421;SHT31;57848;51.938;15.520;2023-11-25T00:05:03;2.02;92.44
70421;SHT31;57848;51.938;15.520;2023-11-25T00:07:29;2.10;92.57
70421;SHT31;57848;51.938;15.520;2023-11-25T00:09:55;2.15;92.09
70421;SHT31;57848;51.938;15.520;2023-11-25T00:12:20;1.99;91.94
70421;SHT31;57848;51.938;15.520;2023-11-25T00:14:45;2.06;92.01
70421;SHT31;57848;51.938;15.520;2023-11-25T00:17:11;2.02;91.44
70421;SHT31;57848;51.938;15.520;2023-11-25T00:19:36;1.92;91.81
70421;SHT31;57848;51.938;15.520;2023-11-25T00:22:02;1.86;92.21
70421;SHT31;57848;51.938;15.520;2023-11-25T00:24:27;1.81;92.36
70421;SHT31;57848;51.938;15.520;2023-11-25T00:26:53;1.85;92.36
70421;SHT31;57848;51.938;15.520;2023-11-25T00:29:18;1.85;92.32
70421;SHT31;57848;51.938;15.520;2023-11-25T00:31:47;1.74;92.52
70421;SHT31;57848;51.938;15.520;2023-11-25T00:34:14;1.74;92.46
70421;SHT31;57848;51.938;15.520;2023-11-25T00:36:39;1.79;92.42
70421;SHT31;57848;51.938;15.520;2023-11-25T00:39:05;1.83;92.59
70421;SHT31;57848;51.938;15.520;2023-11-25T00:41:32;1.76;92.61
70421;SHT31;57848;51.938;15.520;2023-11-25T00:43:59;1.89;92.48
70421;SHT31;57848;51.938;15.520;2023-11-25T00:46:24;1.79;91.91
70421;SHT31;57848;51.938;15.520;2023-11-25T00:48:50;1.89;92.00
70421;SHT31;57848;51.938;15.520;2023-11-25T00:51:18;1.83;92.06
70421;SHT31;57848;51.938;15.520;2023-11-25T00:53:43;1.85;92.27
70421;SHT31;57848;51.938;15.520;2023-11-25T00:56:08;1.81;92.13
70421;SHT31;57848;51.938;15.520;2023-11-25T00:58:34;1.74;92.37
70421;SHT31;57848;51.938;15.520;2023-11-25T01:00:59;1.62;92.19
70421;SHT31;57848;51.938;15.520;2023-11-25T01:03:25;1.66;92.54
70421;SHT31;57848;51.938;15.520;2023-11-25T01:05:50;1.66;92.52
70421;SHT31;57848;51.938;15.520;2023-11-25T01:08:17;1.74;92.46
70421;SHT31;57848;51.938;15.520;2023-11-25T01:10:43;1.69;92.23
70421;SHT31;57848;51.938;15.520;2023-11-25T01:13:08;1.64;92.39
70421;SHT31;57848;51.938;15.520;2023-11-25T01:15:34;1.54;92.50
70421;SHT31;57848;51.938;15.520;2023-11-25T01:17:59;1.54;92.77
70421;SHT31;57848;51.938;15.520;2023-11-25T01:20:25;1.47;92.70
70421;SHT31;57848;51.938;15.520;2023-11-25T01:22:51;1.47;92.82
70421;SHT31;57848;51.938;15.520;2023-11-25T01:25:16;1.51;92.59
70421;SHT31;57848;51.938;15.520;2023-11-25T01:27:41;1.52;92.63
70421;SHT31;57848;51.938;15.520;2023-11-25T01:30:08;1.38;92.56
70421;SHT31;57848;51.938;15.520;2023-11-25T01:32:34;1.35;92.57
70421;SHT31;57848;51.938;15.520;2023-11-25T01:35:00;1.28;92.71
70421;SHT31;57848;51.938;15.520;2023-11-25T01:37:26;1.38;92.71
70421;SHT31;57848;51.938;15.520;2023-11-25T01:39:54;1.41;92.68
70421;SHT31;57848;51.938;15.520;2023-11-25T01:42:19;1.44;92.81
70421;SHT31;57848;51.938;15.520;2023-11-25T01:44:45;1.45;92.64
70421;SHT31;57848;51.938;15.520;2023-11-25T01:47:11;1.48;92.21
70421;SHT31;57848;51.938;15.520;2023-11-25T01:49:38;1.37;92.35
70421;SHT31;57848;51.938;15.520;2023-11-25T01:52:05;1.45;91.98
70421;SHT31;57848;51.938;15.520;2023-11-25T01:54:33;1.40;92.18
70421;SHT31;57848;51.938;15.520;2023-11-25T01:56:59;1.33;92.39
70421;SHT31;57848;51.938;15.520;2023-11-25T01:59:27;1.31;92.46
70421;SHT31;57848;51.938;15.520;2023-11-25T02:01:54;1.35;92.53
70421;SHT31;57848;51.938;15.520;2023-11-25T02:04:20;1.37;92.62
70421;SHT31;57848;51.938;15.520;2023-11-25T02:06:45;1.28;92.65
70421;SHT31;57848;51.938;15.520;2023-11-25T02:09:10;1.28;92.50
70421;SHT31;57848;51.938;15.520;2023-11-25T02:11:53;1.37;92.34
70421;SHT31;57848;51.938;15.520;2023-11-25T02:14:20;1.34;92.28
70421;SHT31;57848;51.938;15.520;2023-11-25T02:16:46;1.26;92.37
70421;SHT31;57848;51.938;15.520;2023-11-25T02:19:11;1.23;92.57
70421;SHT31;57848;51.938;15.520;2023-11-25T02:21:40;1.23;92.80
70421;SHT31;57848;51.938;15.520;2023-11-25T02:24:07;1.20;92.48
70421;SHT31;57848;51.938;15.520;2023-11-25T02:26:33;1.16;92.70
70421;SHT31;57848;51.938;15.520;2023-11-25T02:29:00;1.13;92.51
70421;SHT31;57848;51.938;15.520;2023-11-25T02:31:25;1.03;92.53
70421;SHT31;57848;51.938;15.520;2023-11-25T02:33:50;0.97;92.71
70421;SHT31;57848;51.938;15.520;2023-11-25T02:36:16;1.01;92.70
70421;SHT31;57848;51.938;15.520;2023-11-25T02:38:41;0.99;92.66
70421;SHT31;57848;51.938;15.520;2023-11-25T02:41:07;0.97;93.11
70421;SHT31;57848;51.938;15.520;2023-11-25T02:43:34;1.01;92.80
70421;SHT31;57848;51.938;15.520;2023-11-25T02:45:59;0.94;92.60
70421;SHT31;57848;51.938;15.520;2023-11-25T02:48:24;1.03;92.44
70421;SHT31;57848;51.938;15.520;2023-11-25T02:50:50;1.01;92.40
70421;SHT31;57848;51.938;15.520;2023-11-25T02:53:15;1.01;92.26
70421;SHT31;57848;51.938;15.520;2023-11-25T02:55:41;1.00;92.33
70421;SHT31;57848;51.938;15.520;2023-11-25T02:58:08;0.99;92.24
70421;SHT31;57848;51.938;15.520;2023-11-25T03:00:34;1.00;92.12
70421;SHT31;57848;51.938;15.520;2023-11-25T03:03:05;0.97;92.12
70421;SHT31;57848;51.938;15.520;2023-11-25T03:05:38;0.93;91.97
70421;SHT31;57848;51.938;15.520;2023-11-25T03:08:06;0.93;92.04
70421;SHT31;57848;51.938;15.520;2023-11-25T03:10:31;0.89;92.15
70421;SHT31;57848;51.938;15.520;2023-11-25T03:12:57;0.90;91.99
70421;SHT31;57848;51.938;15.520;2023-11-25T03:15:23;1.00;91.77
70421;SHT31;57848;51.938;15.520;2023-11-25T03:17:48;1.00;91.04
70421;SHT31;57848;51.938;15.520;2023-11-25T03:20:14;0.94;91.21
70421;SHT31;57848;51.938;15.520;2023-11-25T03:22:39;1.01;91.00
70421;SHT31;57848;51.938;15.520;2023-11-25T03:25:05;1.04;90.77
70421;SHT31;57848;51.938;15.520;2023-11-25T03:27:32;0.97;90.60
70421;SHT31;57848;51.938;15.520;2023-11-25T03:29:58;0.99;90.83
70421;SHT31;57848;51.938;15.520;2023-11-25T03:32:23;0.93;90.72
70421;SHT31;57848;51.938;15.520;2023-11-25T03:34:51;0.90;90.76
70421;SHT31;57848;51.938;15.520;2023-11-25T03:37:16;0.92;91.01
70421;SHT31;57848;51.938;15.520;2023-11-25T03:39:42;0.83;91.09
70421;SHT31;57848;51.938;15.520;2023-11-25T03:42:07;0.87;91.19
70421;SHT31;57848;51.938;15.520;2023-11-25T03:44:34;0.96;91.06
70421;SHT31;57848;51.938;15.520;2023-11-25T03:47:01;0.94;91.16
70421;SHT31;57848;51.938;15.520;2023-11-25T03:49:26;0.94;90.61
70421;SHT31;57848;51.938;15.520;2023-11-25T03:51:52;0.93;91.02
70421;SHT31;57848;51.938;15.520;2023-11-25T03:54:17;0.86;91.09
70421;SHT31;57848;51.938;15.520;2023-11-25T03:56:43;0.92;91.15
70421;SHT31;57848;51.938;15.520;2023-11-25T03:59:08;0.97;90.96
70421;SHT31;57848;51.938;15.520;2023-11-25T04:01:34;0.92;91.00
70421;SHT31;57848;51.938;15.520;2023-11-25T04:03:59;1.04;90.69
70421;SHT31;57848;51.938;15.520;2023-11-25T04:06:27;1.04;90.63
70421;SHT31;57848;51.938;15.520;2023-11-25T04:08:52;1.01;90.55
70421;SHT31;57848;51.938;15.520;2023-11-25T04:11:17;1.04;90.68
70421;SHT31;57848;51.938;15.520;2023-11-25T04:13:43;0.99;90.15
70421;SHT31;57848;51.938;15.520;2023-11-25T04:16:08;1.07;90.31
70421;SHT31;57848;51.938;15.520;2023-11-25T04:18:34;1.10;90.24
70421;SHT31;57848;51.938;15.520;2023-11-25T04:20:59;1.01;90.27
70421;SHT31;57848;51.938;15.520;2023-11-25T04:23:25;1.07;90.17
70421;SHT31;57848;51.938;15.520;2023-11-25T04:25:51;1.01;90.20
70421;SHT31;57848;51.938;15.520;2023-11-25T04:28:16;1.06;90.37
70421;SHT31;57848;51.938;15.520;2023-11-25T04:30:41;1.06;90.32
70421;SHT31;57848;51.938;15.520;2023-11-25T04:33:07;0.97;90.22
70421;SHT31;57848;51.938;15.520;2023-11-25T04:35:36;1.01;90.35
70421;SHT31;57848;51.938;15.520;2023-11-25T04:38:02;1.03;90.19
70421;SHT31;57848;51.938;15.520;2023-11-25T04:40:28;1.01;90.36
70421;SHT31;57848;51.938;15.520;2023-11-25T04:42:53;1.08;90.24
70421;SHT31;57848;51.938;15.520;2023-11-25T04:45:18;1.08;89.71
70421;SHT31;57848;51.938;15.520;2023-11-25T04:47:49;1.06;90.07
70421;SHT31;57848;51.938;15.520;2023-11-25T04:50:19;1.12;89.90
70421;SHT31;57848;51.938;15.520;2023-11-25T04:52:45;1.17;89.77
70421;SHT31;57848;51.938;15.520;2023-11-25T04:55:11;1.04;89.69
70421;SHT31;57848;51.938;15.520;2023-11-25T04:57:40;1.10;89.95
70421;SHT31;57848;51.938;15.520;2023-11-25T05:00:06;1.10;89.87
70421;SHT31;57848;51.938;15.520;2023-11-25T05:02:39;1.13;90.02
70421;SHT31;57848;51.938;15.520;2023-11-25T05:05:05;1.12;90.25
70421;SHT31;57848;51.938;15.520;2023-11-25T05:07:31;1.17;89.76
70421;SHT31;57848;51.938;15.520;2023-11-25T05:09:57;1.19;89.90
70421;SHT31;57848;51.938;15.520;2023-11-25T05:12:22;1.20;89.85
70421;SHT31;57848;51.938;15.520;2023-11-25T05:14:49;1.26;89.74
70421;SHT31;57848;51.938;15.520;2023-11-25T05:17:15;1.23;89.25
70421;SHT31;57848;51.938;15.520;2023-11-25T05:19:40;1.16;89.44
70421;SHT31;57848;51.938;15.520;2023-11-25T05:22:06;1.17;89.70
70421;SHT31;57848;51.938;15.520;2023-11-25T05:24:31;1.10;89.88
70421;SHT31;57848;51.938;15.520;2023-11-25T05:26:56;1.07;89.72
70421;SHT31;57848;51.938;15.520;2023-11-25T05:29:22;1.00;89.77
70421;SHT31;57848;51.938;15.520;2023-11-25T05:31:48;1.16;89.42
70421;SHT31;57848;51.938;15.520;2023-11-25T05:34:13;1.16;89.06
70421;SHT31;57848;51.938;15.520;2023-11-25T05:36:39;1.14;89.29
70421;SHT31;57848;51.938;15.520;2023-11-25T05:39:05;1.16;88.80
70421;SHT31;57848;51.938;15.520;2023-11-25T05:41:32;1.17;88.92
70421;SHT31;57848;51.938;15.520;2023-11-25T05:44:01;1.12;89.08
70421;SHT31;57848;51.938;15.520;2023-11-25T05:46:30;1.14;88.91
70421;SHT31;57848;51.938;15.520;2023-11-25T05:48:55;1.08;88.58
70421;SHT31;57848;51.938;15.520;2023-11-25T05:51:21;1.07;88.89
70421;SHT31;57848;51.938;15.520;2023-11-25T05:53:46;1.10;89.09
70421;SHT31;57848;51.938;15.520;2023-11-25T05:56:12;1.10;89.07
70421;SHT31;57848;51.938;15.520;2023-11-25T05:58:38;1.12;88.96
70421;SHT31;57848;51.938;15.520;2023-11-25T06:01:04;1.12;89.07
70421;SHT31;57848;51.938;15.520;2023-11-25T06:03:29;1.08;88.74
70421;SHT31;57848;51.938;15.520;2023-11-25T06:05:55;1.07;88.92
70421;SHT31;57848;51.938;15.520;2023-11-25T06:08:20;1.13;88.93
70421;SHT31;57848;51.938;15.520;2023-11-25T06:10:46;1.07;88.86
70421;SHT31;57848;51.938;15.520;2023-11-25T06:13:14;1.04;88.99
70421;SHT31;57848;51.938;15.520;2023-11-25T06:15:40;1.08;88.70
70421;SHT31;57848;51.938;15.520;2023-11-25T06:18:05;0.94;88.87
70421;SHT31;57848;51.938;15.520;2023-11-25T06:20:33;1.03;89.01
70421;SHT31;57848;51.938;15.520;2023-11-25T06:23:00;0.96;89.23
70421;SHT31;57848;51.938;15.520;2023-11-25T06:25:26;0.96;88.99
70421;SHT31;57848;51.938;15.520;2023-11-25T06:27:52;0.92;89.30
70421;SHT31;57848;51.938;15.520;2023-11-25T06:30:17;0.92;89.50
70421;SHT31;57848;51.938;15.520;2023-11-25T06:32:43;0.90;89.64
70421;SHT31;57848;51.938;15.520;2023-11-25T06:35:08;0.89;89.66
70421;SHT31;57848;51.938;15.520;2023-11-25T06:37:35;0.90;89.15
70421;SHT31;57848;51.938;15.520;2023-11-25T06:40:05;0.90;89.42
70421;SHT31;57848;51.938;15.520;2023-11-25T06:42:31;1.00;89.42
70421;SHT31;57848;51.938;15.520;2023-11-25T06:44:57;0.94;89.50
70421;SHT31;57848;51.938;15.520;2023-11-25T06:47:23;0.94;89.50
70421;SHT31;57848;51.938;15.520;2023-11-25T06:49:48;1.00;89.61
70421;SHT31;57848;51.938;15.520;2023-11-25T06:52:17;1.03;89.55
70421;SHT31;57848;51.938;15.520;2023-11-25T06:54:42;1.08;89.21
70421;SHT31;57848;51.938;15.520;2023-11-25T06:57:08;1.00;89.32
70421;SHT31;57848;51.938;15.520;2023-11-25T06:59:33;1.00;89.63
70421;SHT31;57848;51.938;15.520;2023-11-25T07:01:58;0.94;89.54
70421;SHT31;57848;51.938;15.520;2023-11-25T07:04:24;0.96;89.53
70421;SHT31;57848;51.938;15.520;2023-11-25T07:06:49;1.03;89.62
70421;SHT31;57848;51.938;15.520;2023-11-25T07:09:15;1.04;89.58
70421;SHT31;57848;51.938;15.520;2023-11-25T07:11:40;1.03;89.53
70421;SHT31;57848;51.938;15.520;2023-11-25T07:14:06;1.04;89.38
70421;SHT31;57848;51.938;15.520;2023-11-25T07:16:32;1.06;89.55
70421;SHT31;57848;51.938;15.520;2023-11-25T07:18:58;1.04;89.52
70421;SHT31;57848;51.938;15.520;2023-11-25T07:21:25;1.07;89.33
70421;SHT31;57848;51.938;15.520;2023-11-25T07:23:52;1.10;89.32
70421;SHT31;57848;51.938;15.520;2023-11-25T07:26:17;1.14;89.10
70421;SHT31;57848;51.938;15.520;2023-11-25T07:28:43;1.13;89.17
70421;SHT31;57848;51.938;15.520;2023-11-25T07:31:08;1.16;89.23
70421;SHT31;57848;51.938;15.520;2023-11-25T07:33:37;1.14;89.10
70421;SHT31;57848;51.938;15.520;2023-11-25T07:36:02;1.10;89.05
70421;SHT31;57848;51.938;15.520;2023-11-25T07:38:28;1.06;88.89
70421;SHT31;57848;51.938;15.520;2023-11-25T07:40:54;1.10;89.12
70421;SHT31;57848;51.938;15.520;2023-11-25T07:43:19;1.19;89.15
70421;SHT31;57848;51.938;15.520;2023-11-25T07:45:45;1.22;88.83
70421;SHT31;57848;51.938;15.520;2023-11-25T07:48:11;1.28;89.01
70421;SHT31;57848;51.938;15.520;2023-11-25T07:50:36;1.31;88.50
70421;SHT31;57848;51.938;15.520;2023-11-25T07:53:07;1.40;88.53
70421;SHT31;57848;51.938;15.520;2023-11-25T07:55:33;1.44;88.68
70421;SHT31;57848;51.938;15.520;2023-11-25T07:57:58;1.52;88.29
70421;SHT31;57848;51.938;15.520;2023-11-25T08:00:24;1.51;88.09
70421;SHT31;57848;51.938;15.520;2023-11-25T08:02:51;1.55;88.02
70421;SHT31;57848;51.938;15.520;2023-11-25T08:05:22;1.56;88.31
70421;SHT31;57848;51.938;15.520;2023-11-25T08:07:51;1.64;88.24
70421;SHT31;57848;51.938;15.520;2023-11-25T08:10:17;1.71;88.15
70421;SHT31;57848;51.938;15.520;2023-11-25T08:12:44;1.72;88.31
70421;SHT31;57848;51.938;15.520;2023-11-25T08:15:09;1.66;88.49
70421;SHT31;57848;51.938;15.520;2023-11-25T08:17:36;1.66;88.49
70421;SHT31;57848;51.938;15.520;2023-11-25T08:20:02;1.61;88.71
70421;SHT31;57848;51.938;15.520;2023-11-25T08:22:31;1.61;89.13
70421;SHT31;57848;51.938;15.520;2023-11-25T08:24:56;1.52;89.16
70421;SHT31;57848;51.938;15.520;2023-11-25T08:27:22;1.52;89.47
70421;SHT31;57848;51.938;15.520;2023-11-25T08:29:48;1.54;89.59
70421;SHT31;57848;51.938;15.520;2023-11-25T08:32:13;1.62;89.68
70421;SHT31;57848;51.938;15.520;2023-11-25T08:34:39;1.68;89.36
70421;SHT31;57848;51.938;15.520;2023-11-25T08:37:04;1.69;89.43
70421;SHT31;57848;51.938;15.520;2023-11-25T08:39:30;1.81;89.65
70421;SHT31;57848;51.938;15.520;2023-11-25T08:41:58;1.71;89.53
70421;SHT31;57848;51.938;15.520;2023-11-25T08:44:24;1.64;89.67
70421;SHT31;57848;51.938;15.520;2023-11-25T08:46:51;1.78;89.64
70421;SHT31;57848;51.938;15.520;2023-11-25T08:49:16;1.83;89.72
70421;SHT31;57848;51.938;15.520;2023-11-25T08:51:45;1.89;89.62
70421;SHT31;57848;51.938;15.520;2023-11-25T08:54:16;1.92;89.67
70421;SHT31;57848;51.938;15.520;2023-11-25T08:56:46;1.87;89.45
70421;SHT31;57848;51.938;15.520;2023-11-25T08:59:13;1.85;89.67
70421;SHT31;57848;51.938;15.520;2023-11-25T09:01:47;1.82;89.79
70421;SHT31;57848;51.938;15.520;2023-11-25T09:04:13;1.75;90.18
70421;SHT31;57848;51.938;15.520;2023-11-25T09:06:47;1.79;90.18
70421;SHT31;57848;51.938;15.520;2023-11-25T09:09:18;1.83;90.21
70421;SHT31;57848;51.938;15.520;2023-11-25T09:11:44;1.89;90.10
70421;SHT31;57848;51.938;15.520;2023-11-25T09:14:10;1.81;90.17
70421;SHT31;57848;51.938;15.520;2023-11-25T09:16:36;1.82;90.14
70421;SHT31;57848;51.938;15.520;2023-11-25T09:19:01;1.81;90.26
70421;SHT31;57848;51.938;15.520;2023-11-25T09:21:28;1.89;90.05
70421;SHT31;57848;51.938;15.520;2023-11-25T09:23:53;1.99;90.06
70421;SHT31;57848;51.938;15.520;2023-11-25T09:26:21;2.02;89.82
70421;SHT31;57848;51.938;15.520;2023-11-25T09:28:48;2.01;89.66
70421;SHT31;57848;51.938;15.520;2023-11-25T09:31:15;1.98;89.92
70421;SHT31;57848;51.938;15.520;2023-11-25T09:33:40;1.95;90.14
70421;SHT31;57848;51.938;15.520;2023-11-25T09:36:06;1.89;90.35
70421;SHT31;57848;51.938;15.520;2023-11-25T09:38:33;1.96;90.42
70421;SHT31;57848;51.938;15.520;2023-11-25T09:40:59;2.06;90.05
70421;SHT31;57848;51.938;15.520;2023-11-25T09:43:25;2.09;89.75
70421;SHT31;57848;51.938;15.520;2023-11-25T09:45:51;2.13;89.51
70421;SHT31;57848;51.938;15.520;2023-11-25T09:48:16;2.16;89.51
70421;SHT31;57848;51.938;15.520;2023-11-25T09:50:43;2.07;89.57
70421;SHT31;57848;51.938;15.520;2023-11-25T09:53:29;2.15;89.71
70421;SHT31;57848;51.938;15.520;2023-11-25T09:56:01;2.13;89.40
70421;SHT31;57848;51.938;15.520;2023-11-25T09:58:28;2.13;89.72
70421;SHT31;57848;51.938;15.520;2023-11-25T10:00:54;2.23;89.45
70421;SHT31;57848;51.938;15.520;2023-11-25T10:03:25;2.23;88.91
70421;SHT31;57848;51.938;15.520;2023-11-25T10:05:53;2.26;88.90
70421;SHT31;57848;51.938;15.520;2023-11-25T10:08:18;2.30;88.78
70421;SHT31;57848;51.938;15.520;2023-11-25T10:11:00;2.43;88.78
70421;SHT31;57848;51.938;15.520;2023-11-25T10:13:39;2.44;88.51
70421;SHT31;57848;51.938;15.520;2023-11-25T10:16:06;2.44;88.57
70421;SHT31;57848;51.938;15.520;2023-11-25T10:18:32;2.40;88.29
70421;SHT31;57848;51.938;15.520;2023-11-25T10:21:00;2.38;88.65
70421;SHT31;57848;51.938;15.520;2023-11-25T10:23:26;2.41;88.87
70421;SHT31;57848;51.938;15.520;2023-11-25T10:25:52;2.41;88.71
70421;SHT31;57848;51.938;15.520;2023-11-25T10:28:21;2.55;88.16
70421;SHT31;57848;51.938;15.520;2023-11-25T10:30:57;2.51;88.24
70421;SHT31;57848;51.938;15.520;2023-11-25T10:33:28;2.38;88.21
70421;SHT31;57848;51.938;15.520;2023-11-25T10:35:54;2.55;88.35
70421;SHT31;57848;51.938;15.520;2023-11-25T10:38:20;2.53;88.61
70421;SHT31;57848;51.938;15.520;2023-11-25T10:40:58;2.70;88.05
70421;SHT31;57848;51.938;15.520;2023-11-25T10:43:25;2.75;87.12
70421;SHT31;57848;51.938;15.520;2023-11-25T10:46:07;2.74;86.97
70421;SHT31;57848;51.938;15.520;2023-11-25T10:48:34;2.75;87.21
70421;SHT31;57848;51.938;15.520;2023-11-25T10:51:00;2.81;87.38
70421;SHT31;57848;51.938;15.520;2023-11-25T10:53:30;2.73;87.00
70421;SHT31;57848;51.938;15.520;2023-11-25T10:55:56;2.77;87.25
70421;SHT31;57848;51.938;15.520;2023-11-25T10:58:24;2.68;87.45
70421;SHT31;57848;51.938;15.520;2023-11-25T11:00:52;2.75;87.48
70421;SHT31;57848;51.938;15.520;2023-11-25T11:03:20;2.94;87.54
70421;SHT31;57848;51.938;15.520;2023-11-25T11:05:50;3.02;86.86
70421;SHT31;57848;51.938;15.520;2023-11-25T11:08:47;2.98;86.65
70421;SHT31;57848;51.938;15.520;2023-11-25T11:11:16;3.04;86.59
70421;SHT31;57848;51.938;15.520;2023-11-25T11:16:40;3.25;86.59
70421;SHT31;57848;51.938;15.520;2023-11-25T11:19:09;3.27;86.01
70421;SHT31;57848;51.938;15.520;2023-11-25T11:21:37;3.22;85.53
70421;SHT31;57848;51.938;15.520;2023-11-25T11:24:02;3.25;86.25
70421;SHT31;57848;51.938;15.520;2023-11-25T11:26:58;3.29;85.72
70421;SHT31;57848;51.938;15.520;2023-11-25T11:32:02;3.22;85.65
70421;SHT31;57848;51.938;15.520;2023-11-25T11:34:29;3.26;85.82
70421;SHT31;57848;51.938;15.520;2023-11-25T11:36:55;3.30;86.25
70421;SHT31;57848;51.938;15.520;2023-11-25T11:47:40;3.09;86.08
70421;SHT31;57848;51.938;15.520;2023-11-25T11:50:10;3.13;86.05
70421;SHT31;57848;51.938;15.520;2023-11-25T11:52:46;3.18;85.72
70421;SHT31;57848;51.938;15.520;2023-11-25T11:55:43;3.16;85.61
70421;SHT31;57848;51.938;15.520;2023-11-25T11:58:14;3.15;85.92
70421;SHT31;57848;51.938;15.520;2023-11-25T12:03:31;3.11;85.94
70421;SHT31;57848;51.938;15.520;2023-11-25T12:05:57;3.02;86.32
70421;SHT31;57848;51.938;15.520;2023-11-25T12:08:23;3.06;85.90
70421;SHT31;57848;51.938;15.520;2023-11-25T12:10:49;3.12;85.70
70421;SHT31;57848;51.938;15.520;2023-11-25T12:13:29;3.08;85.65
70421;SHT31;57848;51.938;15.520;2023-11-25T12:15:56;2.99;86.16
70421;SHT31;57848;51.938;15.520;2023-11-25T12:18:28;3.13;86.14
70421;SHT31;57848;51.938;15.520;2023-11-25T12:20:54;3.09;86.23
70421;SHT31;57848;51.938;15.520;2023-11-25T12:23:20;3.13;86.12
70421;SHT31;57848;51.938;15.520;2023-11-25T12:25:45;3.20;85.96
70421;SHT31;57848;51.938;15.520;2023-11-25T12:28:11;3.27;85.93
70421;SHT31;57848;51.938;15.520;2023-11-25T12:30:40;3.22;86.26
70421;SHT31;57848;51.938;15.520;2023-11-25T12:33:06;3.40;85.62
70421;SHT31;57848;51.938;15.520;2023-11-25T12:35:40;3.46;85.55
70421;SHT31;57848;51.938;15.520;2023-11-25T12:38:06;3.46;85.36
70421;SHT31;57848;51.938;15.520;2023-11-25T12:40:33;3.49;85.22
70421;SHT31;57848;51.938;15.520;2023-11-25T12:43:00;3.44;85.29
70421;SHT31;57848;51.938;15.520;2023-11-25T12:48:02;3.44;85.03
70421;SHT31;57848;51.938;15.520;2023-11-25T12:50:28;3.36;85.14
70421;SHT31;57848;51.938;15.520;2023-11-25T12:55:43;3.49;84.97
70421;SHT31;57848;51.938;15.520;2023-11-25T12:58:13;3.53;85.27
70421;SHT31;57848;51.938;15.520;2023-11-25T13:03:25;3.56;84.97
70421;SHT31;57848;51.938;15.520;2023-11-25T13:05:58;3.60;85.10
70421;SHT31;57848;51.938;15.520;2023-11-25T13:08:25;3.53;84.57
70421;SHT31;57848;51.938;15.520;2023-11-25T13:10:55;3.52;84.73
70421;SHT31;57848;51.938;15.520;2023-11-25T13:13:21;3.62;84.75
70421;SHT31;57848;51.938;15.520;2023-11-25T13:15:48;3.54;84.83
70421;SHT31;57848;51.938;15.520;2023-11-25T13:18:14;3.53;84.48
70421;SHT31;57848;51.938;15.520;2023-11-25T13:20:40;3.43;84.41
70421;SHT31;57848;51.938;15.520;2023-11-25T13:23:05;3.40;85.08
70421;SHT31;57848;51.938;15.520;2023-11-25T13:25:31;3.29;85.35
70421;SHT31;57848;51.938;15.520;2023-11-25T13:27:57;3.30;85.05
70421;SHT31;57848;51.938;15.520;2023-11-25T13:30:23;3.18;85.49
70421;SHT31;57848;51.938;15.520;2023-11-25T13:32:48;3.11;85.94
70421;SHT31;57848;51.938;15.520;2023-11-25T13:35:16;3.18;85.97
70421;SHT31;57848;51.938;15.520;2023-11-25T13:37:42;3.09;86.38
70421;SHT31;57848;51.938;15.520;2023-11-25T13:40:08;3.09;86.22
70421;SHT31;57848;51.938;15.520;2023-11-25T13:42:40;3.12;86.47
70421;SHT31;57848;51.938;15.520;2023-11-25T13:45:05;3.04;86.42
70421;SHT31;57848;51.938;15.520;2023-11-25T13:47:36;3.02;86.47
70421;SHT31;57848;51.938;15.520;2023-11-25T13:50:02;3.04;86.79
70421;SHT31;57848;51.938;15.520;2023-11-25T13:52:27;3.05;86.76
70421;SHT31;57848;51.938;15.520;2023-11-25T13:54:53;2.99;87.00
70421;SHT31;57848;51.938;15.520;2023-11-25T13:57:18;2.94;87.46
70421;SHT31;57848;51.938;15.520;2023-11-25T13:59:44;2.92;87.31
70421;SHT31;57848;51.938;15.520;2023-11-25T14:02:09;2.89;87.27
70421;SHT31;57848;51.938;15.520;2023-11-25T14:04:39;2.83;87.44
70421;SHT31;57848;51.938;15.520;2023-11-25T14:07:05;2.81;87.64
70421;SHT31;57848;51.938;15.520;2023-11-25T14:09:31;2.84;87.68
70421;SHT31;57848;51.938;15.520;2023-11-25T14:11:56;2.88;87.61
70421;SHT31;57848;51.938;15.520;2023-11-25T14:14:22;2.92;87.54
70421;SHT31;57848;51.938;15.520;2023-11-25T14:16:48;2.95;87.50
70421;SHT31;57848;51.938;15.520;2023-11-25T14:19:15;2.95;87.69
70421;SHT31;57848;51.938;15.520;2023-11-25T14:21:40;2.85;88.05
70421;SHT31;57848;51.938;15.520;2023-11-25T14:24:06;2.88;87.69
70421;SHT31;57848;51.938;15.520;2023-11-25T14:26:31;2.84;87.91
70421;SHT31;57848;51.938;15.520;2023-11-25T14:28:59;2.91;88.16
70421;SHT31;57848;51.938;15.520;2023-11-25T14:31:24;2.87;87.90
70421;SHT31;57848;51.938;15.520;2023-11-25T14:33:50;2.91;87.98
70421;SHT31;57848;51.938;15.520;2023-11-25T14:36:15;2.84;88.13
70421;SHT31;57848;51.938;15.520;2023-11-25T14:38:41;2.81;88.46
70421;SHT31;57848;51.938;15.520;2023-11-25T14:41:06;2.91;88.66
70421;SHT31;57848;51.938;15.520;2023-11-25T14:43:32;2.85;88.33
70421;SHT31;57848;51.938;15.520;2023-11-25T14:45:58;2.83;88.47
70421;SHT31;57848;51.938;15.520;2023-11-25T14:48:23;2.88;88.43
70421;SHT31;57848;51.938;15.520;2023-11-25T14:50:49;2.85;88.49
70421;SHT31;57848;51.938;15.520;2023-11-25T14:53:16;2.96;87.95
70421;SHT31;57848;51.938;15.520;2023-11-25T14:55:42;2.85;88.42
70421;SHT31;57848;51.938;15.520;2023-11-25T14:58:07;2.88;88.15
70421;SHT31;57848;51.938;15.520;2023-11-25T15:00:34;2.95;87.99
70421;SHT31;57848;51.938;15.520;2023-11-25T15:02:59;2.95;87.84
70421;SHT31;57848;51.938;15.520;2023-11-25T15:05:25;2.89;87.61
70421;SHT31;57848;51.938;15.520;2023-11-25T15:07:50;2.84;87.86
70421;SHT31;57848;51.938;15.520;2023-11-25T15:10:16;2.88;87.99
70421;SHT31;57848;51.938;15.520;2023-11-25T15:12:41;2.91;87.51
70421;SHT31;57848;51.938;15.520;2023-11-25T15:15:07;2.85;87.95
70421;SHT31;57848;51.938;15.520;2023-11-25T15:17:38;2.84;88.02
70421;SHT31;57848;51.938;15.520;2023-11-25T15:20:04;2.88;88.08
70421;SHT31;57848;51.938;15.520;2023-11-25T15:22:29;2.96;87.86
70421;SHT31;57848;51.938;15.520;2023-11-25T15:24:55;2.95;87.98
70421;SHT31;57848;51.938;15.520;2023-11-25T15:27:20;2.96;88.13
70421;SHT31;57848;51.938;15.520;2023-11-25T15:30:03;2.91;88.14
70421;SHT31;57848;51.938;15.520;2023-11-25T15:32:34;2.88;87.32
70421;SHT31;57848;51.938;15.520;2023-11-25T15:34:59;2.95;87.52
70421;SHT31;57848;51.938;15.520;2023-11-25T15:37:24;3.05;87.03
70421;SHT31;57848;51.938;15.520;2023-11-25T15:39:50;3.02;86.87
70421;SHT31;57848;51.938;15.520;2023-11-25T15:42:16;3.04;87.14
70421;SHT31;57848;51.938;15.520;2023-11-25T15:44:41;3.05;86.76
70421;SHT31;57848;51.938;15.520;2023-11-25T15:47:06;3.09;86.97
70421;SHT31;57848;51.938;15.520;2023-11-25T15:49:32;2.96;87.02
70421;SHT31;57848;51.938;15.520;2023-11-25T15:51:57;3.01;87.33